sensor_id;sensor_type;location;lat;lon;timestamp;P1;durP1;ratioP1;P2;durP2;ratioP2
21569;SDS011;57598;50.888;4.746;2023-09-30T00:00:04;79.10;;;71.50;;
21569;SDS011;57598;50.888;4.746;2023-09-30T00:02:33;79.15;;;71.55;;
21569;SDS011;57598;50.888;4.746;2023-09-30T00:05:01;78.32;;;70.82;;
21569;SDS011;57598;50.888;4.746;2023-09-30T00:07:29;77.20;;;69.80;;
21569;SDS011;57598;50.888;4.746;2023-09-30T00:09:56;76.85;;;69.50;;
21569;SDS011;57598;50.888;4.746;2023-09-30T00:12:25;78.78;;;71.20;;
21569;SDS011;57598;50.888;4.746;2023-09-30T00:14:52;77.97;;;70.43;;
21569;SDS011;57598;50.888;4.746;2023-09-30T00:17:20;81.68;;;73.78;;
21569;SDS011;57598;50.888;4.746;2023-09-30T00:19:47;78.55;;;70.85;;
21569;SDS011;57598;50.888;4.746;2023-09-30T00:22:14;80.63;;;72.80;;
21569;SDS011;57598;50.888;4.746;2023-09-30T00:24:42;79.00;;;71.30;;
21569;SDS011;57598;50.888;4.746;2023-09-30T00:27:09;80.13;;;72.45;;
21569;SDS011;57598;50.888;4.746;2023-09-30T00:29:38;80.60;;;73.00;;
21569;SDS011;57598;50.888;4.746;2023-09-30T00:32:05;78.20;;;70.75;;
21569;SDS011;57598;50.888;4.746;2023-09-30T00:34:33;76.63;;;69.22;;
21569;SDS011;57598;50.888;4.746;2023-09-30T00:37:00;79.60;;;72.07;;
21569;SDS011;57598;50.888;4.746;2023-09-30T00:39:27;77.07;;;69.68;;
21569;SDS011;57598;50.888;4.746;2023-09-30T00:41:56;78.90;;;71.40;;
21569;SDS011;57598;50.888;4.746;2023-09-30T00:44:24;80.63;;;73.03;;
21569;SDS011;57598;50.888;4.746;2023-09-30T00:46:53;78.53;;;71.03;;
21569;SDS011;57598;50.888;4.746;2023-09-30T00:49:21;78.00;;;70.40;;
21569;SDS011;57598;50.888;4.746;2023-09-30T00:51:48;79.43;;;71.72;;
21569;SDS011;57598;50.888;4.746;2023-09-30T00:54:17;77.53;;;69.93;;
21569;SDS011;57598;50.888;4.746;2023-09-30T00:56:45;77.20;;;69.50;;
21569;SDS011;57598;50.888;4.746;2023-09-30T00:59:12;76.72;;;69.03;;
21569;SDS011;57598;50.888;4.746;2023-09-30T01:01:40;75.70;;;68.25;;
21569;SDS011;57598;50.888;4.746;2023-09-30T01:04:09;77.03;;;69.53;;
21569;SDS011;57598;50.888;4.746;2023-09-30T01:06:37;77.78;;;70.28;;
21569;SDS011;57598;50.888;4.746;2023-09-30T01:09:04;81.65;;;73.95;;
21569;SDS011;57598;50.888;4.746;2023-09-30T01:11:32;77.90;;;70.30;;
21569;SDS011;57598;50.888;4.746;2023-09-30T01:13:59;78.53;;;70.97;;
21569;SDS011;57598;50.888;4.746;2023-09-30T01:16:27;76.57;;;69.18;;
21569;SDS011;57598;50.888;4.746;2023-09-30T01:18:54;78.68;;;71.07;;
21569;SDS011;57598;50.888;4.746;2023-09-30T01:21:23;79.55;;;71.90;;
21569;SDS011;57598;50.888;4.746;2023-09-30T01:23:54;78.72;;;71.05;;
21569;SDS011;57598;50.888;4.746;2023-09-30T01:26:21;76.95;;;69.45;;
21569;SDS011;57598;50.888;4.746;2023-09-30T01:28:49;77.90;;;70.30;;
21569;SDS011;57598;50.888;4.746;2023-09-30T01:31:16;80.82;;;73.13;;
21569;SDS011;57598;50.888;4.746;2023-09-30T01:33:43;77.50;;;70.00;;
21569;SDS011;57598;50.888;4.746;2023-09-30T01:36:10;77.07;;;69.70;;
21569;SDS011;57598;50.888;4.746;2023-09-30T01:38:38;79.43;;;71.80;;
21569;SDS011;57598;50.888;4.746;2023-09-30T01:41:07;78.43;;;70.88;;
21569;SDS011;57598;50.888;4.746;2023-09-30T01:43:34;79.45;;;71.85;;
21569;SDS011;57598;50.888;4.746;2023-09-30T01:46:02;77.93;;;70.40;;
21569;SDS011;57598;50.888;4.746;2023-09-30T01:48:31;77.60;;;70.05;;
21569;SDS011;57598;50.888;4.746;2023-09-30T01:50:58;77.93;;;70.32;;
21569;SDS011;57598;50.888;4.746;2023-09-30T01:53:26;75.90;;;68.40;;
21569;SDS011;57598;50.888;4.746;2023-09-30T01:55:53;76.85;;;69.40;;
21569;SDS011;57598;50.888;4.746;2023-09-30T01:58:22;78.40;;;70.80;;
21569;SDS011;57598;50.888;4.746;2023-09-30T02:00:50;78.78;;;71.18;;
21569;SDS011;57598;50.888;4.746;2023-09-30T02:03:17;77.43;;;69.85;;
21569;SDS011;57598;50.888;4.746;2023-09-30T02:05:44;80.32;;;72.70;;
21569;SDS011;57598;50.888;4.746;2023-09-30T02:08:11;77.30;;;69.75;;
21569;SDS011;57598;50.888;4.746;2023-09-30T02:10:39;75.80;;;68.22;;
21569;SDS011;57598;50.888;4.746;2023-09-30T02:13:06;75.65;;;68.15;;
21569;SDS011;57598;50.888;4.746;2023-09-30T02:15:39;77.30;;;69.70;;
21569;SDS011;57598;50.888;4.746;2023-09-30T02:18:07;76.47;;;68.97;;
21569;SDS011;57598;50.888;4.746;2023-09-30T02:20:34;82.80;;;74.80;;
21569;SDS011;57598;50.888;4.746;2023-09-30T02:23:04;78.47;;;70.82;;
21569;SDS011;57598;50.888;4.746;2023-09-30T02:25:31;78.65;;;70.97;;
21569;SDS011;57598;50.888;4.746;2023-09-30T02:27:59;77.35;;;69.75;;
21569;SDS011;57598;50.888;4.746;2023-09-30T02:30:26;78.55;;;70.85;;
21569;SDS011;57598;50.888;4.746;2023-09-30T02:32:55;80.63;;;72.93;;
21569;SDS011;57598;50.888;4.746;2023-09-30T02:35:22;79.32;;;71.72;;
21569;SDS011;57598;50.888;4.746;2023-09-30T02:37:50;78.35;;;70.85;;
21569;SDS011;57598;50.888;4.746;2023-09-30T02:40:19;79.53;;;71.93;;
21569;SDS011;57598;50.888;4.746;2023-09-30T02:42:50;79.72;;;72.15;;
21569;SDS011;57598;50.888;4.746;2023-09-30T02:45:17;80.60;;;72.90;;
21569;SDS011;57598;50.888;4.746;2023-09-30T02:47:45;79.15;;;71.43;;
21569;SDS011;57598;50.888;4.746;2023-09-30T02:50:14;80.20;;;72.50;;
21569;SDS011;57598;50.888;4.746;2023-09-30T02:52:41;79.68;;;71.97;;
21569;SDS011;57598;50.888;4.746;2023-09-30T02:55:09;79.05;;;71.25;;
21569;SDS011;57598;50.888;4.746;2023-09-30T02:57:36;80.03;;;72.32;;
21569;SDS011;57598;50.888;4.746;2023-09-30T03:00:03;79.38;;;71.68;;
21569;SDS011;57598;50.888;4.746;2023-09-30T03:02:39;79.72;;;71.88;;
21569;SDS011;57598;50.888;4.746;2023-09-30T03:05:06;80.45;;;72.43;;
21569;SDS011;57598;50.888;4.746;2023-09-30T03:07:36;80.97;;;73.13;;
21569;SDS011;57598;50.888;4.746;2023-09-30T03:10:04;78.75;;;71.05;;
21569;SDS011;57598;50.888;4.746;2023-09-30T03:12:33;79.97;;;72.18;;
21569;SDS011;57598;50.888;4.746;2023-09-30T03:15:01;80.57;;;72.35;;
21569;SDS011;57598;50.888;4.746;2023-09-30T03:17:30;78.57;;;70.78;;
21569;SDS011;57598;50.888;4.746;2023-09-30T03:19:57;78.40;;;70.70;;
21569;SDS011;57598;50.888;4.746;2023-09-30T03:22:24;76.07;;;68.47;;
21569;SDS011;57598;50.888;4.746;2023-09-30T03:24:54;74.65;;;67.15;;
21569;SDS011;57598;50.888;4.746;2023-09-30T03:27:22;75.65;;;68.13;;
21569;SDS011;57598;50.888;4.746;2023-09-30T03:29:49;77.72;;;70.03;;
21569;SDS011;57598;50.888;4.746;2023-09-30T03:32:16;78.95;;;71.15;;
21569;SDS011;57598;50.888;4.746;2023-09-30T03:34:43;80.20;;;72.50;;
21569;SDS011;57598;50.888;4.746;2023-09-30T03:37:11;76.85;;;69.35;;
21569;SDS011;57598;50.888;4.746;2023-09-30T03:39:38;77.40;;;69.85;;
21569;SDS011;57598;50.888;4.746;2023-09-30T03:42:07;78.35;;;70.47;;
21569;SDS011;57598;50.888;4.746;2023-09-30T03:44:36;79.03;;;71.43;;
21569;SDS011;57598;50.888;4.746;2023-09-30T03:47:04;77.90;;;70.40;;
21569;SDS011;57598;50.888;4.746;2023-09-30T03:49:33;76.53;;;69.03;;
21569;SDS011;57598;50.888;4.746;2023-09-30T03:52:00;74.80;;;67.40;;
21569;SDS011;57598;50.888;4.746;2023-09-30T03:54:28;72.68;;;65.40;;
21569;SDS011;57598;50.888;4.746;2023-09-30T03:56:56;74.40;;;67.07;;
21569;SDS011;57598;50.888;4.746;2023-09-30T03:59:26;78.90;;;71.25;;
21569;SDS011;57598;50.888;4.746;2023-09-30T04:01:54;76.88;;;69.35;;
21569;SDS011;57598;50.888;4.746;2023-09-30T04:04:23;79.43;;;71.95;;
21569;SDS011;57598;50.888;4.746;2023-09-30T04:06:51;75.38;;;68.10;;
21569;SDS011;57598;50.888;4.746;2023-09-30T04:09:19;75.15;;;67.95;;
21569;SDS011;57598;50.888;4.746;2023-09-30T04:11:46;76.47;;;68.97;;
21569;SDS011;57598;50.888;4.746;2023-09-30T04:14:14;73.35;;;65.95;;
21569;SDS011;57598;50.888;4.746;2023-09-30T04:16:44;74.53;;;67.00;;
21569;SDS011;57598;50.888;4.746;2023-09-30T04:19:11;73.80;;;66.30;;
21569;SDS011;57598;50.888;4.746;2023-09-30T04:21:39;71.82;;;64.53;;
21569;SDS011;57598;50.888;4.746;2023-09-30T04:24:06;71.93;;;64.57;;
21569;SDS011;57598;50.888;4.746;2023-09-30T04:26:34;71.50;;;64.22;;
21569;SDS011;57598;50.888;4.746;2023-09-30T04:29:02;73.72;;;66.43;;
21569;SDS011;57598;50.888;4.746;2023-09-30T04:31:29;74.85;;;67.35;;
21569;SDS011;57598;50.888;4.746;2023-09-30T04:33:58;71.22;;;63.92;;
21569;SDS011;57598;50.888;4.746;2023-09-30T04:36:25;70.55;;;63.35;;
21569;SDS011;57598;50.888;4.746;2023-09-30T04:38:53;69.47;;;62.15;;
21569;SDS011;57598;50.888;4.746;2023-09-30T04:41:20;70.20;;;62.90;;
21569;SDS011;57598;50.888;4.746;2023-09-30T04:43:49;72.07;;;64.57;;
21569;SDS011;57598;50.888;4.746;2023-09-30T04:46:18;70.28;;;62.85;;
21569;SDS011;57598;50.888;4.746;2023-09-30T04:48:48;72.70;;;65.13;;
21569;SDS011;57598;50.888;4.746;2023-09-30T04:51:18;72.03;;;64.53;;
21569;SDS011;57598;50.888;4.746;2023-09-30T04:53:45;69.50;;;62.22;;
21569;SDS011;57598;50.888;4.746;2023-09-30T04:56:13;70.20;;;63.00;;
21569;SDS011;57598;50.888;4.746;2023-09-30T04:58:40;73.63;;;66.03;;
21569;SDS011;57598;50.888;4.746;2023-09-30T05:01:07;68.80;;;61.55;;
21569;SDS011;57598;50.888;4.746;2023-09-30T05:03:35;71.40;;;64.00;;
21569;SDS011;57598;50.888;4.746;2023-09-30T05:06:02;69.38;;;62.10;;
21569;SDS011;57598;50.888;4.746;2023-09-30T05:08:31;68.90;;;61.70;;
21569;SDS011;57598;50.888;4.746;2023-09-30T05:10:59;73.32;;;65.63;;
21569;SDS011;57598;50.888;4.746;2023-09-30T05:13:26;72.43;;;65.03;;
21569;SDS011;57598;50.888;4.746;2023-09-30T05:15:53;71.53;;;64.03;;
21569;SDS011;57598;50.888;4.746;2023-09-30T05:18:20;72.25;;;64.75;;
21569;SDS011;57598;50.888;4.746;2023-09-30T05:20:49;66.60;;;59.53;;
21569;SDS011;57598;50.888;4.746;2023-09-30T05:23:16;69.82;;;62.58;;
21569;SDS011;57598;50.888;4.746;2023-09-30T05:25:45;69.13;;;61.83;;
21569;SDS011;57598;50.888;4.746;2023-09-30T05:28:12;70.03;;;62.53;;
21569;SDS011;57598;50.888;4.746;2023-09-30T05:30:40;68.53;;;61.20;;
21569;SDS011;57598;50.888;4.746;2023-09-30T05:33:08;71.20;;;63.60;;
21569;SDS011;57598;50.888;4.746;2023-09-30T05:35:39;70.53;;;63.03;;
21569;SDS011;57598;50.888;4.746;2023-09-30T05:38:06;68.30;;;61.00;;
21569;SDS011;57598;50.888;4.746;2023-09-30T05:40:34;69.68;;;62.17;;
21569;SDS011;57598;50.888;4.746;2023-09-30T05:43:02;66.40;;;59.30;;
21569;SDS011;57598;50.888;4.746;2023-09-30T05:45:31;67.72;;;60.47;;
21569;SDS011;57598;50.888;4.746;2023-09-30T05:48:01;65.88;;;58.78;;
21569;SDS011;57598;50.888;4.746;2023-09-30T05:50:32;66.63;;;59.53;;
21569;SDS011;57598;50.888;4.746;2023-09-30T05:53:02;70.07;;;62.88;;
21569;SDS011;57598;50.888;4.746;2023-09-30T05:55:29;66.07;;;59.15;;
21569;SDS011;57598;50.888;4.746;2023-09-30T05:57:57;67.13;;;60.20;;
21569;SDS011;57598;50.888;4.746;2023-09-30T06:00:27;68.22;;;61.28;;
21569;SDS011;57598;50.888;4.746;2023-09-30T06:02:55;70.13;;;63.03;;
21569;SDS011;57598;50.888;4.746;2023-09-30T06:05:23;68.85;;;61.75;;
21569;SDS011;57598;50.888;4.746;2023-09-30T06:07:51;68.55;;;61.45;;
21569;SDS011;57598;50.888;4.746;2023-09-30T06:10:19;68.95;;;61.75;;
21569;SDS011;57598;50.888;4.746;2023-09-30T06:12:46;66.15;;;59.35;;
21569;SDS011;57598;50.888;4.746;2023-09-30T06:15:13;66.40;;;59.60;;
21569;SDS011;57598;50.888;4.746;2023-09-30T06:17:48;67.38;;;60.50;;
21569;SDS011;57598;50.888;4.746;2023-09-30T06:20:17;69.18;;;62.40;;
21569;SDS011;57598;50.888;4.746;2023-09-30T06:22:44;71.18;;;64.07;;
21569;SDS011;57598;50.888;4.746;2023-09-30T06:25:14;70.07;;;63.03;;
21569;SDS011;57598;50.888;4.746;2023-09-30T06:27:41;70.40;;;63.30;;
21569;SDS011;57598;50.888;4.746;2023-09-30T06:30:09;69.22;;;62.17;;
21569;SDS011;57598;50.888;4.746;2023-09-30T06:32:37;72.05;;;64.75;;
21569;SDS011;57598;50.888;4.746;2023-09-30T06:35:06;72.13;;;64.63;;
21569;SDS011;57598;50.888;4.746;2023-09-30T06:37:35;68.30;;;61.42;;
21569;SDS011;57598;50.888;4.746;2023-09-30T06:40:03;71.65;;;64.55;;
21569;SDS011;57598;50.888;4.746;2023-09-30T06:42:32;72.55;;;65.40;;
21569;SDS011;57598;50.888;4.746;2023-09-30T06:45:00;69.93;;;62.83;;
21569;SDS011;57598;50.888;4.746;2023-09-30T06:47:30;73.30;;;65.78;;
21569;SDS011;57598;50.888;4.746;2023-09-30T06:49:58;72.22;;;64.82;;
21569;SDS011;57598;50.888;4.746;2023-09-30T06:52:27;75.10;;;67.65;;
21569;SDS011;57598;50.888;4.746;2023-09-30T06:54:55;73.60;;;66.40;;
21569;SDS011;57598;50.888;4.746;2023-09-30T06:57:22;71.18;;;64.38;;
21569;SDS011;57598;50.888;4.746;2023-09-30T06:59:50;74.97;;;67.97;;
21569;SDS011;57598;50.888;4.746;2023-09-30T07:02:17;76.22;;;69.22;;
21569;SDS011;57598;50.888;4.746;2023-09-30T07:04:44;77.43;;;70.53;;
21569;SDS011;57598;50.888;4.746;2023-09-30T07:07:11;79.45;;;72.25;;
21569;SDS011;57598;50.888;4.746;2023-09-30T07:09:42;73.97;;;67.10;;
21569;SDS011;57598;50.888;4.746;2023-09-30T07:12:09;71.70;;;65.10;;
21569;SDS011;57598;50.888;4.746;2023-09-30T07:14:37;68.28;;;62.15;;
21569;SDS011;57598;50.888;4.746;2023-09-30T07:17:04;72.38;;;66.07;;
21569;SDS011;57598;50.888;4.746;2023-09-30T07:19:31;78.35;;;72.07;;
21569;SDS011;57598;50.888;4.746;2023-09-30T07:21:58;77.68;;;71.70;;
21569;SDS011;57598;50.888;4.746;2023-09-30T07:24:27;79.93;;;73.88;;
21569;SDS011;57598;50.888;4.746;2023-09-30T07:26:56;69.45;;;63.60;;
21569;SDS011;57598;50.888;4.746;2023-09-30T07:29:23;70.22;;;64.88;;
21569;SDS011;57598;50.888;4.746;2023-09-30T07:31:51;65.50;;;61.13;;
21569;SDS011;57598;50.888;4.746;2023-09-30T07:34:18;56.85;;;53.45;;
21569;SDS011;57598;50.888;4.746;2023-09-30T07:36:46;46.97;;;44.28;;
21569;SDS011;57598;50.888;4.746;2023-09-30T07:39:13;41.33;;;38.92;;
21569;SDS011;57598;50.888;4.746;2023-09-30T07:41:42;35.78;;;33.78;;
21569;SDS011;57598;50.888;4.746;2023-09-30T07:44:11;36.40;;;34.15;;
21569;SDS011;57598;50.888;4.746;2023-09-30T07:46:38;31.17;;;29.48;;
21569;SDS011;57598;50.888;4.746;2023-09-30T07:49:06;29.20;;;27.08;;
21569;SDS011;57598;50.888;4.746;2023-09-30T07:51:34;28.27;;;26.58;;
21569;SDS011;57598;50.888;4.746;2023-09-30T07:54:02;27.83;;;26.25;;
21569;SDS011;57598;50.888;4.746;2023-09-30T07:56:57;25.70;;;24.30;;
21569;SDS011;57598;50.888;4.746;2023-09-30T07:59:26;25.23;;;23.83;;
21569;SDS011;57598;50.888;4.746;2023-09-30T08:01:53;28.30;;;26.33;;
21569;SDS011;57598;50.888;4.746;2023-09-30T08:04:22;26.45;;;24.05;;
21569;SDS011;57598;50.888;4.746;2023-09-30T08:06:50;24.88;;;23.48;;
21569;SDS011;57598;50.888;4.746;2023-09-30T08:09:17;24.05;;;22.65;;
21569;SDS011;57598;50.888;4.746;2023-09-30T08:11:45;24.38;;;22.88;;
21569;SDS011;57598;50.888;4.746;2023-09-30T08:14:12;23.95;;;22.55;;
21569;SDS011;57598;50.888;4.746;2023-09-30T08:16:41;23.58;;;21.90;;
21569;SDS011;57598;50.888;4.746;2023-09-30T08:19:09;22.80;;;21.50;;
21569;SDS011;57598;50.888;4.746;2023-09-30T08:21:36;23.17;;;21.80;;
21569;SDS011;57598;50.888;4.746;2023-09-30T08:24:04;23.13;;;21.83;;
21569;SDS011;57598;50.888;4.746;2023-09-30T08:26:31;29.85;;;23.00;;
21569;SDS011;57598;50.888;4.746;2023-09-30T08:29:00;23.63;;;22.23;;
21569;SDS011;57598;50.888;4.746;2023-09-30T08:31:28;24.08;;;22.45;;
21569;SDS011;57598;50.888;4.746;2023-09-30T08:33:56;25.00;;;23.10;;
21569;SDS011;57598;50.888;4.746;2023-09-30T08:36:24;23.95;;;22.15;;
21569;SDS011;57598;50.888;4.746;2023-09-30T08:38:51;22.15;;;20.75;;
21569;SDS011;57598;50.888;4.746;2023-09-30T08:41:24;24.50;;;22.45;;
21569;SDS011;57598;50.888;4.746;2023-09-30T08:43:51;20.15;;;18.95;;
21569;SDS011;57598;50.888;4.746;2023-09-30T08:46:21;22.42;;;20.88;;
21569;SDS011;57598;50.888;4.746;2023-09-30T08:48:48;22.33;;;20.92;;
21569;SDS011;57598;50.888;4.746;2023-09-30T08:51:17;21.48;;;20.05;;
21569;SDS011;57598;50.888;4.746;2023-09-30T08:53:45;22.42;;;20.90;;
21569;SDS011;57598;50.888;4.746;2023-09-30T08:56:14;22.95;;;20.42;;
21569;SDS011;57598;50.888;4.746;2023-09-30T08:58:43;22.50;;;20.80;;
21569;SDS011;57598;50.888;4.746;2023-09-30T09:01:10;21.48;;;20.02;;
21569;SDS011;57598;50.888;4.746;2023-09-30T09:03:38;21.30;;;19.80;;
21569;SDS011;57598;50.888;4.746;2023-09-30T09:06:05;20.52;;;19.33;;
21569;SDS011;57598;50.888;4.746;2023-09-30T09:08:34;21.40;;;20.08;;
21569;SDS011;57598;50.888;4.746;2023-09-30T09:11:01;21.73;;;20.33;;
21569;SDS011;57598;50.888;4.746;2023-09-30T09:13:44;21.33;;;19.83;;
21569;SDS011;57598;50.888;4.746;2023-09-30T09:16:14;21.60;;;20.00;;
21569;SDS011;57598;50.888;4.746;2023-09-30T09:18:41;21.98;;;20.45;;
21569;SDS011;57598;50.888;4.746;2023-09-30T09:21:09;20.27;;;18.92;;
21569;SDS011;57598;50.888;4.746;2023-09-30T09:23:42;20.83;;;19.52;;
21569;SDS011;57598;50.888;4.746;2023-09-30T09:26:10;20.20;;;18.75;;
21569;SDS011;57598;50.888;4.746;2023-09-30T09:28:37;22.35;;;20.75;;
21569;SDS011;57598;50.888;4.746;2023-09-30T09:31:19;20.85;;;19.55;;
21569;SDS011;57598;50.888;4.746;2023-09-30T09:33:47;19.65;;;18.55;;
21569;SDS011;57598;50.888;4.746;2023-09-30T09:36:14;21.00;;;19.70;;
21569;SDS011;57598;50.888;4.746;2023-09-30T09:38:47;20.67;;;19.27;;
21569;SDS011;57598;50.888;4.746;2023-09-30T09:41:15;20.45;;;19.15;;
21569;SDS011;57598;50.888;4.746;2023-09-30T09:43:43;21.85;;;20.42;;
21569;SDS011;57598;50.888;4.746;2023-09-30T09:46:10;21.80;;;20.35;;
21569;SDS011;57598;50.888;4.746;2023-09-30T09:48:39;22.77;;;20.38;;
21569;SDS011;57598;50.888;4.746;2023-09-30T09:51:06;19.70;;;18.45;;
21569;SDS011;57598;50.888;4.746;2023-09-30T09:53:37;21.17;;;19.98;;
21569;SDS011;57598;50.888;4.746;2023-09-30T09:56:07;19.83;;;18.67;;
21569;SDS011;57598;50.888;4.746;2023-09-30T09:58:36;21.08;;;19.77;;
21569;SDS011;57598;50.888;4.746;2023-09-30T10:01:05;20.65;;;19.42;;
21569;SDS011;57598;50.888;4.746;2023-09-30T10:03:33;21.70;;;19.98;;
21569;SDS011;57598;50.888;4.746;2023-09-30T10:06:00;20.10;;;18.85;;
21569;SDS011;57598;50.888;4.746;2023-09-30T10:08:30;19.60;;;18.40;;
21569;SDS011;57598;50.888;4.746;2023-09-30T10:10:58;21.63;;;19.98;;
21569;SDS011;57598;50.888;4.746;2023-09-30T10:19:11;21.58;;;20.00;;
21569;SDS011;57598;50.888;4.746;2023-09-30T10:21:39;18.70;;;17.60;;
21569;SDS011;57598;50.888;4.746;2023-09-30T10:26:49;21.83;;;19.88;;
21569;SDS011;57598;50.888;4.746;2023-09-30T10:29:39;19.02;;;17.83;;
21569;SDS011;57598;50.888;4.746;2023-09-30T10:32:07;19.23;;;18.13;;
21569;SDS011;57598;50.888;4.746;2023-09-30T10:34:36;20.90;;;19.60;;
21569;SDS011;57598;50.888;4.746;2023-09-30T10:39:55;21.63;;;20.33;;
21569;SDS011;57598;50.888;4.746;2023-09-30T10:45:20;20.38;;;19.13;;
21569;SDS011;57598;50.888;4.746;2023-09-30T10:50:51;21.15;;;19.23;;
21569;SDS011;57598;50.888;4.746;2023-09-30T10:53:20;20.70;;;19.25;;
21569;SDS011;57598;50.888;4.746;2023-09-30T10:55:50;21.70;;;20.15;;
21569;SDS011;57598;50.888;4.746;2023-09-30T10:58:20;20.65;;;19.45;;
21569;SDS011;57598;50.888;4.746;2023-09-30T11:00:51;20.83;;;19.63;;
21569;SDS011;57598;50.888;4.746;2023-09-30T11:03:19;18.98;;;17.88;;
21569;SDS011;57598;50.888;4.746;2023-09-30T11:05:47;19.10;;;18.00;;
21569;SDS011;57598;50.888;4.746;2023-09-30T11:08:17;20.42;;;19.23;;
21569;SDS011;57598;50.888;4.746;2023-09-30T11:10:47;19.67;;;18.45;;
21569;SDS011;57598;50.888;4.746;2023-09-30T11:13:15;19.70;;;18.60;;
21569;SDS011;57598;50.888;4.746;2023-09-30T11:15:43;20.50;;;19.00;;
21569;SDS011;57598;50.888;4.746;2023-09-30T11:18:13;19.63;;;18.33;;
21569;SDS011;57598;50.888;4.746;2023-09-30T11:20:40;20.47;;;19.13;;
21569;SDS011;57598;50.888;4.746;2023-09-30T11:23:08;20.27;;;19.08;;
21569;SDS011;57598;50.888;4.746;2023-09-30T11:25:37;21.20;;;19.77;;
21569;SDS011;57598;50.888;4.746;2023-09-30T11:28:14;20.38;;;18.80;;
21569;SDS011;57598;50.888;4.746;2023-09-30T11:30:54;20.88;;;19.48;;
21569;SDS011;57598;50.888;4.746;2023-09-30T11:33:22;19.53;;;18.43;;
21569;SDS011;57598;50.888;4.746;2023-09-30T11:35:55;20.05;;;18.85;;
21569;SDS011;57598;50.888;4.746;2023-09-30T11:38:24;20.15;;;18.95;;
21569;SDS011;57598;50.888;4.746;2023-09-30T11:41:02;20.13;;;18.85;;
21569;SDS011;57598;50.888;4.746;2023-09-30T11:43:31;19.13;;;17.73;;
21569;SDS011;57598;50.888;4.746;2023-09-30T11:46:06;19.77;;;18.58;;
21569;SDS011;57598;50.888;4.746;2023-09-30T11:48:34;19.23;;;18.13;;
21569;SDS011;57598;50.888;4.746;2023-09-30T11:51:02;19.30;;;18.15;;
21569;SDS011;57598;50.888;4.746;2023-09-30T11:53:29;18.83;;;17.63;;
21569;SDS011;57598;50.888;4.746;2023-09-30T11:55:57;18.40;;;17.20;;
21569;SDS011;57598;50.888;4.746;2023-09-30T11:58:29;18.98;;;17.58;;
21569;SDS011;57598;50.888;4.746;2023-09-30T12:00:57;17.85;;;16.85;;
21569;SDS011;57598;50.888;4.746;2023-09-30T12:03:25;18.65;;;17.55;;
21569;SDS011;57598;50.888;4.746;2023-09-30T12:05:53;18.20;;;17.15;;
21569;SDS011;57598;50.888;4.746;2023-09-30T12:08:21;19.85;;;18.40;;
21569;SDS011;57598;50.888;4.746;2023-09-30T12:10:49;21.05;;;19.38;;
21569;SDS011;57598;50.888;4.746;2023-09-30T12:13:16;18.50;;;17.40;;
21569;SDS011;57598;50.888;4.746;2023-09-30T12:15:45;18.25;;;17.15;;
21569;SDS011;57598;50.888;4.746;2023-09-30T12:18:12;18.60;;;17.50;;
21569;SDS011;57598;50.888;4.746;2023-09-30T12:20:45;18.90;;;17.80;;
21569;SDS011;57598;50.888;4.746;2023-09-30T12:23:12;19.30;;;18.10;;
21569;SDS011;57598;50.888;4.746;2023-09-30T12:25:39;19.25;;;18.15;;
21569;SDS011;57598;50.888;4.746;2023-09-30T12:28:07;20.67;;;19.30;;
21569;SDS011;57598;50.888;4.746;2023-09-30T12:30:34;19.80;;;18.60;;
21569;SDS011;57598;50.888;4.746;2023-09-30T12:33:03;19.63;;;18.48;;
21569;SDS011;57598;50.888;4.746;2023-09-30T12:35:31;18.92;;;17.83;;
21569;SDS011;57598;50.888;4.746;2023-09-30T12:37:59;19.00;;;17.90;;
21569;SDS011;57598;50.888;4.746;2023-09-30T12:40:26;18.98;;;17.88;;
21569;SDS011;57598;50.888;4.746;2023-09-30T12:42:54;19.85;;;18.75;;
21569;SDS011;57598;50.888;4.746;2023-09-30T12:45:22;20.20;;;18.77;;
21569;SDS011;57598;50.888;4.746;2023-09-30T12:47:50;20.30;;;19.10;;
21569;SDS011;57598;50.888;4.746;2023-09-30T12:50:20;20.27;;;19.08;;
21569;SDS011;57598;50.888;4.746;2023-09-30T12:52:47;21.08;;;19.67;;
21569;SDS011;57598;50.888;4.746;2023-09-30T12:55:15;20.52;;;19.23;;
21569;SDS011;57598;50.888;4.746;2023-09-30T12:57:42;21.27;;;19.65;;
21569;SDS011;57598;50.888;4.746;2023-09-30T13:00:10;21.73;;;20.20;;
21569;SDS011;57598;50.888;4.746;2023-09-30T13:02:37;20.42;;;19.13;;
21569;SDS011;57598;50.888;4.746;2023-09-30T13:05:04;19.30;;;18.20;;
21569;SDS011;57598;50.888;4.746;2023-09-30T13:07:34;19.80;;;18.50;;
21569;SDS011;57598;50.888;4.746;2023-09-30T13:10:01;19.58;;;18.48;;
21569;SDS011;57598;50.888;4.746;2023-09-30T13:12:30;19.92;;;18.83;;
21569;SDS011;57598;50.888;4.746;2023-09-30T13:14:59;19.77;;;18.58;;
21569;SDS011;57598;50.888;4.746;2023-09-30T13:17:26;19.42;;;18.33;;
21569;SDS011;57598;50.888;4.746;2023-09-30T13:19:54;19.75;;;18.65;;
21569;SDS011;57598;50.888;4.746;2023-09-30T13:22:21;19.20;;;18.10;;
21569;SDS011;57598;50.888;4.746;2023-09-30T13:24:50;19.60;;;18.50;;
21569;SDS011;57598;50.888;4.746;2023-09-30T13:27:17;20.55;;;19.15;;
21569;SDS011;57598;50.888;4.746;2023-09-30T13:29:46;18.35;;;17.27;;
21569;SDS011;57598;50.888;4.746;2023-09-30T13:32:13;19.95;;;18.80;;
21569;SDS011;57598;50.888;4.746;2023-09-30T13:34:43;19.10;;;18.00;;
21569;SDS011;57598;50.888;4.746;2023-09-30T13:37:10;21.58;;;19.95;;
21569;SDS011;57598;50.888;4.746;2023-09-30T13:39:38;20.17;;;18.70;;
21569;SDS011;57598;50.888;4.746;2023-09-30T13:42:06;19.33;;;18.13;;
21569;SDS011;57598;50.888;4.746;2023-09-30T13:44:34;19.50;;;18.40;;
21569;SDS011;57598;50.888;4.746;2023-09-30T13:47:01;19.30;;;18.15;;
21569;SDS011;57598;50.888;4.746;2023-09-30T13:49:29;18.00;;;17.00;;
21569;SDS011;57598;50.888;4.746;2023-09-30T13:51:58;18.80;;;17.70;;
21569;SDS011;57598;50.888;4.746;2023-09-30T13:54:26;19.45;;;18.25;;
21569;SDS011;57598;50.888;4.746;2023-09-30T13:56:56;19.40;;;18.23;;
21569;SDS011;57598;50.888;4.746;2023-09-30T13:59:25;19.98;;;18.58;;
21569;SDS011;57598;50.888;4.746;2023-09-30T14:01:53;19.75;;;18.55;;
21569;SDS011;57598;50.888;4.746;2023-09-30T14:04:20;18.75;;;17.55;;
21569;SDS011;57598;50.888;4.746;2023-09-30T14:06:47;19.05;;;17.75;;
21569;SDS011;57598;50.888;4.746;2023-09-30T14:09:14;18.55;;;17.45;;
21569;SDS011;57598;50.888;4.746;2023-09-30T14:11:43;18.52;;;17.33;;
21569;SDS011;57598;50.888;4.746;2023-09-30T14:14:10;19.17;;;17.98;;
21569;SDS011;57598;50.888;4.746;2023-09-30T14:16:39;20.75;;;19.27;;
21569;SDS011;57598;50.888;4.746;2023-09-30T14:19:06;19.67;;;18.42;;
21569;SDS011;57598;50.888;4.746;2023-09-30T14:21:33;20.02;;;18.80;;
21569;SDS011;57598;50.888;4.746;2023-09-30T14:24:01;18.95;;;17.85;;
21569;SDS011;57598;50.888;4.746;2023-09-30T14:26:28;19.17;;;18.08;;
21569;SDS011;57598;50.888;4.746;2023-09-30T14:28:55;18.58;;;17.48;;
21569;SDS011;57598;50.888;4.746;2023-09-30T14:31:23;18.23;;;17.17;;
21569;SDS011;57598;50.888;4.746;2023-09-30T14:33:51;18.25;;;17.20;;
21569;SDS011;57598;50.888;4.746;2023-09-30T14:36:19;18.95;;;17.65;;
21569;SDS011;57598;50.888;4.746;2023-09-30T14:38:48;19.70;;;18.27;;
21569;SDS011;57598;50.888;4.746;2023-09-30T14:41:15;19.17;;;17.75;;
21569;SDS011;57598;50.888;4.746;2023-09-30T14:43:43;18.23;;;17.17;;